sensor_id;sensor_type;location;lat;lon;timestamp;pressure;altitude;pressure_sealevel;temperature
7830;BMP180;3960;51.86894000;5.39848000;2023-04-01T00:01:54;99097.41;;;10.06
7830;BMP180;3960;51.86894000;5.39848000;2023-04-01T00:04:19;99103.44;;;10.10
7830;BMP180;3960;51.86894000;5.39848000;2023-04-01T00:06:46;99108.41;;;10.12
7830;BMP180;3960;51.86894000;5.39848000;2023-04-01T00:09:13;99091.38;;;10.02
7830;BMP180;3960;51.86894000;5.39848000;2023-04-01T00:11:41;99109.47;;;10.14
7830;BMP180;3960;51.86894000;5.39848000;2023-04-01T00:14:07;99121.81;;;10.15
7830;BMP180;3960;51.86894000;5.39848000;2023-04-01T00:16:33;99120.28;;;10.14
7830;BMP180;3960;51.86894000;5.39848000;2023-04-01T00:18:58;99122.88;;;10.18
7830;BMP180;3960;51.86894000;5.39848000;2023-04-01T00:21:25;99118.31;;;10.15
7830;BMP180;3960;51.86894000;5.39848000;2023-04-01T00:23:51;99100.53;;;10.05
7830;BMP180;3960;51.86894000;5.39848000;2023-04-01T00:29:44;99110.03;;;10.09
7830;BMP180;3960;51.86894000;5.39848000;2023-04-01T00:32:11;99104.63;;;10.09
7830;BMP180;3960;51.86894000;5.39848000;2023-04-01T00:34:36;99116.13;;;10.22
7830;BMP180;3960;51.86894000;5.39848000;2023-04-01T00:37:02;99119.25;;;10.20
7830;BMP180;3960;51.86894000;5.39848000;2023-04-01T00:39:31;99124.53;;;10.24
7830;BMP180;3960;51.86894000;5.39848000;2023-04-01T00:41:58;99124.25;;;10.22
7830;BMP180;3960;51.86894000;5.39848000;2023-04-01T00:44:27;99111.72;;;10.16
7830;BMP180;3960;51.86894000;5.39848000;2023-04-01T00:46:52;99107.34;;;10.09
7830;BMP180;3960;51.86894000;5.39848000;2023-04-01T00:49:21;99127.25;;;10.24
7830;BMP180;3960;51.86894000;5.39848000;2023-04-01T00:51:50;99133.88;;;10.23
7830;BMP180;3960;51.86894000;5.39848000;2023-04-01T00:54:16;99095.03;;;9.96
7830;BMP180;3960;51.86894000;5.39848000;2023-04-01T00:56:48;99113.50;;;10.10
7830;BMP180;3960;51.86894000;5.39848000;2023-04-01T00:59:19;99141.09;;;10.26
7830;BMP180;3960;51.86894000;5.39848000;2023-04-01T01:01:46;99150.53;;;10.21
7830;BMP180;3960;51.86894000;5.39848000;2023-04-01T01:04:25;99149.00;;;10.20
7830;BMP180;3960;51.86894000;5.39848000;2023-04-01T01:09:43;99152.28;;;10.16
7830;BMP180;3960;51.86894000;5.39848000;2023-04-01T01:12:39;99155.88;;;10.13
7830;BMP180;3960;51.86894000;5.39848000;2023-04-01T01:15:23;99155.56;;;10.11
7830;BMP180;3960;51.86894000;5.39848000;2023-04-01T01:18:05;99137.09;;;9.97
7830;BMP180;3960;51.86894000;5.39848000;2023-04-01T01:23:36;99159.59;;;10.06
7830;BMP180;3960;51.86894000;5.39848000;2023-04-01T01:31:33;99168.72;;;10.00
7830;BMP180;3960;51.86894000;5.39848000;2023-04-01T01:34:19;99159.09;;;9.99
7830;BMP180;3960;51.86894000;5.39848000;2023-04-01T01:36:52;99159.19;;;9.95
7830;BMP180;3960;51.86894000;5.39848000;2023-04-01T01:39:20;99168.03;;;9.96
7830;BMP180;3960;51.86894000;5.39848000;2023-04-01T01:41:52;99143.91;;;9.80
7830;BMP180;3960;51.86894000;5.39848000;2023-04-01T01:44:18;99126.84;;;9.70
7830;BMP180;3960;51.86894000;5.39848000;2023-04-01T01:46:44;99119.72;;;9.64
7830;BMP180;3960;51.86894000;5.39848000;2023-04-01T01:49:11;99134.97;;;9.70
7830;BMP180;3960;51.86894000;5.39848000;2023-04-01T01:51:38;99128.72;;;9.61
7830;BMP180;3960;51.86894000;5.39848000;2023-04-01T01:54:05;99166.25;;;9.80
7830;BMP180;3960;51.86894000;5.39848000;2023-04-01T01:56:30;99167.78;;;9.81
7830;BMP180;3960;51.86894000;5.39848000;2023-04-01T01:59:07;99166.59;;;9.82
7830;BMP180;3960;51.86894000;5.39848000;2023-04-01T02:01:35;99137.69;;;9.58
7830;BMP180;3960;51.86894000;5.39848000;2023-04-01T02:04:02;99179.53;;;9.87
7830;BMP180;3960;51.86894000;5.39848000;2023-04-01T02:06:30;99169.09;;;9.77
7830;BMP180;3960;51.86894000;5.39848000;2023-04-01T02:09:00;99181.16;;;9.85
7830;BMP180;3960;51.86894000;5.39848000;2023-04-01T02:14:04;99180.84;;;9.83
7830;BMP180;3960;51.86894000;5.39848000;2023-04-01T02:16:39;99175.38;;;9.74
7830;BMP180;3960;51.86894000;5.39848000;2023-04-01T02:19:06;99171.72;;;9.68
7830;BMP180;3960;51.86894000;5.39848000;2023-04-01T02:21:33;99196.13;;;9.77
7830;BMP180;3960;51.86894000;5.39848000;2023-04-01T02:24:01;99193.72;;;9.79
7830;BMP180;3960;51.86894000;5.39848000;2023-04-01T02:26:27;99206.19;;;9.76
7830;BMP180;3960;51.86894000;5.39848000;2023-04-01T02:28:54;99194.31;;;9.74
7830;BMP180;3960;51.86894000;5.39848000;2023-04-01T02:31:20;99190.53;;;9.71
7830;BMP180;3960;51.86894000;5.39848000;2023-04-01T02:33:47;99178.00;;;9.65
7830;BMP180;3960;51.86894000;5.39848000;2023-04-01T02:36:13;99202.06;;;9.72
7830;BMP180;3960;51.86894000;5.39848000;2023-04-01T02:38:40;99193.63;;;9.70
7830;BMP180;3960;51.86894000;5.39848000;2023-04-01T02:41:05;99193.00;;;9.66
7830;BMP180;3960;51.86894000;5.39848000;2023-04-01T02:43:31;99197.22;;;9.67
7830;BMP180;3960;51.86894000;5.39848000;2023-04-01T02:45:56;99180.19;;;9.57
7830;BMP180;3960;51.86894000;5.39848000;2023-04-01T02:48:22;99199.94;;;9.67
7830;BMP180;3960;51.86894000;5.39848000;2023-04-01T02:50:47;99196.56;;;9.63
7830;BMP180;3960;51.86894000;5.39848000;2023-04-01T02:53:12;99193.69;;;9.57
7830;BMP180;3960;51.86894000;5.39848000;2023-04-01T02:55:38;99200.16;;;9.60
7830;BMP180;3960;51.86894000;5.39848000;2023-04-01T02:58:03;99205.00;;;9.65
7830;BMP180;3960;51.86894000;5.39848000;2023-04-01T03:00:29;99204.28;;;9.64
7830;BMP180;3960;51.86894000;5.39848000;2023-04-01T03:02:55;99201.25;;;9.62
7830;BMP180;3960;51.86894000;5.39848000;2023-04-01T03:05:22;99207.81;;;9.61
7830;BMP180;3960;51.86894000;5.39848000;2023-04-01T03:07:47;99163.66;;;9.43
7830;BMP180;3960;51.86894000;5.39848000;2023-04-01T03:10:13;99202.03;;;9.50
7830;BMP180;3960;51.86894000;5.39848000;2023-04-01T03:12:38;99217.91;;;9.61
7830;BMP180;3960;51.86894000;5.39848000;2023-04-01T03:15:04;99209.56;;;9.55
7830;BMP180;3960;51.86894000;5.39848000;2023-04-01T03:17:29;99213.78;;;9.56
7830;BMP180;3960;51.86894000;5.39848000;2023-04-01T03:19:55;99224.16;;;9.58
7830;BMP180;3960;51.86894000;5.39848000;2023-04-01T03:22:20;99224.16;;;9.58
7830;BMP180;3960;51.86894000;5.39848000;2023-04-01T03:24:47;99206.34;;;9.48
7830;BMP180;3960;51.86894000;5.39848000;2023-04-01T03:27:12;99169.31;;;9.24
7830;BMP180;3960;51.86894000;5.39848000;2023-04-01T03:29:37;99230.31;;;9.58
7830;BMP180;3960;51.86894000;5.39848000;2023-04-01T03:32:02;99206.88;;;9.43
7830;BMP180;3960;51.86894000;5.39848000;2023-04-01T03:34:28;99192.44;;;9.25
7830;BMP180;3960;51.86894000;5.39848000;2023-04-01T03:36:53;99233.78;;;9.59
7830;BMP180;3960;51.86894000;5.39848000;2023-04-01T03:39:19;99239.63;;;9.57
7830;BMP180;3960;51.86894000;5.39848000;2023-04-01T03:41:45;99206.34;;;9.36
7830;BMP180;3960;51.86894000;5.39848000;2023-04-01T03:44:11;99240.47;;;9.54
7830;BMP180;3960;51.86894000;5.39848000;2023-04-01T03:46:36;99229.16;;;9.47
7830;BMP180;3960;51.86894000;5.39848000;2023-04-01T03:49:02;99234.44;;;9.50
7830;BMP180;3960;51.86894000;5.39848000;2023-04-01T03:51:27;99220.59;;;9.36
7830;BMP180;3960;51.86894000;5.39848000;2023-04-01T03:53:53;99228.06;;;9.44
7830;BMP180;3960;51.86894000;5.39848000;2023-04-01T03:56:18;99233.47;;;9.44
7830;BMP180;3960;51.86894000;5.39848000;2023-04-01T03:58:43;99243.28;;;9.51
7830;BMP180;3960;51.86894000;5.39848000;2023-04-01T04:01:17;99245.66;;;9.49
7830;BMP180;3960;51.86894000;5.39848000;2023-04-01T04:03:43;99239.63;;;9.45
7830;BMP180;3960;51.86894000;5.39848000;2023-04-01T04:06:17;99237.47;;;9.40
7830;BMP180;3960;51.86894000;5.39848000;2023-04-01T04:08:43;99246.78;;;9.51
7830;BMP180;3960;51.86894000;5.39848000;2023-04-01T04:11:09;99263.72;;;9.52
7830;BMP180;3960;51.86894000;5.39848000;2023-04-01T04:13:34;99266.88;;;9.50
7830;BMP180;3960;51.86894000;5.39848000;2023-04-01T04:16:02;99257.34;;;9.46
7830;BMP180;3960;51.86894000;5.39848000;2023-04-01T04:18:27;99268.69;;;9.53
7830;BMP180;3960;51.86894000;5.39848000;2023-04-01T04:20:52;99256.28;;;9.43
7830;BMP180;3960;51.86894000;5.39848000;2023-04-01T04:23:18;99269.47;;;9.54
7830;BMP180;3960;51.86894000;5.39848000;2023-04-01T04:25:54;99275.59;;;9.54
7830;BMP180;3960;51.86894000;5.39848000;2023-04-01T04:28:20;99249.13;;;9.37
7830;BMP180;3960;51.86894000;5.39848000;2023-04-01T04:30:45;99270.41;;;9.47
7830;BMP180;3960;51.86894000;5.39848000;2023-04-01T04:33:10;99274.19;;;9.50
7830;BMP180;3960;51.86894000;5.39848000;2023-04-01T04:35:36;99276.59;;;9.48
7830;BMP180;3960;51.86894000;5.39848000;2023-04-01T04:38:01;99274.31;;;9.46
7830;BMP180;3960;51.86894000;5.39848000;2023-04-01T04:40:26;99290.19;;;9.57
7830;BMP180;3960;51.86894000;5.39848000;2023-04-01T04:42:51;99285.88;;;9.59
7830;BMP180;3960;51.86894000;5.39848000;2023-04-01T04:45:17;99299.72;;;9.61
7830;BMP180;3960;51.86894000;5.39848000;2023-04-01T04:47:42;99294.31;;;9.61
7830;BMP180;3960;51.86894000;5.39848000;2023-04-01T04:50:08;99306.19;;;9.64
7830;BMP180;3960;51.86894000;5.39848000;2023-04-01T04:52:33;99302.53;;;9.58
7830;BMP180;3960;51.86894000;5.39848000;2023-04-01T04:54:59;99301.34;;;9.59
7830;BMP180;3960;51.86894000;5.39848000;2023-04-01T04:57:24;99312.47;;;9.61
7830;BMP180;3960;51.86894000;5.39848000;2023-04-01T04:59:50;99293.44;;;9.52
7830;BMP180;3960;51.86894000;5.39848000;2023-04-01T05:02:15;99317.31;;;9.66
7830;BMP180;3960;51.86894000;5.39848000;2023-04-01T05:04:40;99306.09;;;9.55
7830;BMP180;3960;51.86894000;5.39848000;2023-04-01T05:07:06;99323.38;;;9.70
7830;BMP180;3960;51.86894000;5.39848000;2023-04-01T05:09:31;99329.22;;;9.68
7830;BMP180;3960;51.86894000;5.39848000;2023-04-01T05:11:57;99340.44;;;9.79
7830;BMP180;3960;51.86894000;5.39848000;2023-04-01T05:14:22;99346.19;;;9.81
7830;BMP180;3960;51.86894000;5.39848000;2023-04-01T05:16:47;99336.47;;;9.71
7830;BMP180;3960;51.86894000;5.39848000;2023-04-01T05:19:14;99355.47;;;9.80
7830;BMP180;3960;51.86894000;5.39848000;2023-04-01T05:21:39;99360.03;;;9.83
7830;BMP180;3960;51.86894000;5.39848000;2023-04-01T05:24:07;99361.09;;;9.86
7830;BMP180;3960;51.86894000;5.39848000;2023-04-01T05:26:33;99362.19;;;9.88
7830;BMP180;3960;51.86894000;5.39848000;2023-04-01T05:28:58;99366.97;;;9.84
7830;BMP180;3960;51.86894000;5.39848000;2023-04-01T05:31:24;99374.81;;;9.91
7830;BMP180;3960;51.86894000;5.39848000;2023-04-01T05:33:49;99375.25;;;9.90
7830;BMP180;3960;51.86894000;5.39848000;2023-04-01T05:36:15;99369.97;;;9.86
7830;BMP180;3960;51.86894000;5.39848000;2023-04-01T05:38:41;99383.25;;;9.93
7830;BMP180;3960;51.86894000;5.39848000;2023-04-01T05:41:07;99387.81;;;9.96
7830;BMP180;3960;51.86894000;5.39848000;2023-04-01T05:43:35;99389.38;;;9.97
7830;BMP180;3960;51.86894000;5.39848000;2023-04-01T05:46:01;99381.53;;;9.87
7830;BMP180;3960;51.86894000;5.39848000;2023-04-01T05:48:26;99392.44;;;9.96
7830;BMP180;3960;51.86894000;5.39848000;2023-04-01T05:50:51;99390.84;;;9.86
7830;BMP180;3960;51.86894000;5.39848000;2023-04-01T05:53:17;99400.56;;;9.96
7830;BMP180;3960;51.86894000;5.39848000;2023-04-01T05:55:42;99413.25;;;9.99
7830;BMP180;3960;51.86894000;5.39848000;2023-04-01T05:58:07;99416.41;;;9.97
7830;BMP180;3960;51.86894000;5.39848000;2023-04-01T06:00:33;99398.06;;;9.89
7830;BMP180;3960;51.86894000;5.39848000;2023-04-01T06:02:59;99399.16;;;9.91
7830;BMP180;3960;51.86894000;5.39848000;2023-04-01T06:05:28;99418.66;;;9.99
7830;BMP180;3960;51.86894000;5.39848000;2023-04-01T06:08:01;99425.16;;;10.01
7830;BMP180;3960;51.86894000;5.39848000;2023-04-01T06:10:48;99430.44;;;10.05
7830;BMP180;3960;51.86894000;5.39848000;2023-04-01T06:33:06;99475.34;;;10.15
7830;BMP180;3960;51.86894000;5.39848000;2023-04-01T06:35:43;99460.53;;;10.07
7830;BMP180;3960;51.86894000;5.39848000;2023-04-01T06:38:20;99485.75;;;10.16
7830;BMP180;3960;51.86894000;5.39848000;2023-04-01T06:49:21;99486.59;;;10.13
7830;BMP180;3960;51.86894000;5.39848000;2023-04-01T06:52:11;99486.59;;;10.13
7830;BMP180;3960;51.86894000;5.39848000;2023-04-01T06:54:45;99491.78;;;10.20
7830;BMP180;3960;51.86894000;5.39848000;2023-04-01T06:57:32;99503.69;;;10.22
7830;BMP180;3960;51.86894000;5.39848000;2023-04-01T07:00:01;99492.78;;;10.14
7830;BMP180;3960;51.86894000;5.39848000;2023-04-01T07:02:41;99500.00;;;10.17
7830;BMP180;3960;51.86894000;5.39848000;2023-04-01T07:05:11;99512.13;;;10.24
7830;BMP180;3960;51.86894000;5.39848000;2023-04-01T07:07:43;99514.41;;;10.26
7830;BMP180;3960;51.86894000;5.39848000;2023-04-01T07:10:17;99493.53;;;10.14
7830;BMP180;3960;51.86894000;5.39848000;2023-04-01T07:12:49;99504.56;;;10.19
7830;BMP180;3960;51.86894000;5.39848000;2023-04-01T07:15:22;99519.06;;;10.25
7830;BMP180;3960;51.86894000;5.39848000;2023-04-01T07:17:56;99525.66;;;10.24
7830;BMP180;3960;51.86894000;5.39848000;2023-04-01T07:20:26;99525.44;;;10.19
7830;BMP180;3960;51.86894000;5.39848000;2023-04-01T07:22:56;99532.59;;;10.25
7830;BMP180;3960;51.86894000;5.39848000;2023-04-01T07:28:12;99550.00;;;10.24
7830;BMP180;3960;51.86894000;5.39848000;2023-04-01T07:31:09;99549.34;;;10.20
7830;BMP180;3960;51.86894000;5.39848000;2023-04-01T07:34:02;99548.81;;;10.13
7830;BMP180;3960;51.86894000;5.39848000;2023-04-01T07:44:16;99569.91;;;10.18
7830;BMP180;3960;51.86894000;5.39848000;2023-04-01T07:47:06;99579.53;;;10.19
7830;BMP180;3960;51.86894000;5.39848000;2023-04-01T07:52:40;99586.69;;;10.25
7830;BMP180;3960;51.86894000;5.39848000;2023-04-01T07:55:42;99587.44;;;10.26
7830;BMP180;3960;51.86894000;5.39848000;2023-04-01T08:01:16;99590.94;;;10.26
7830;BMP180;3960;51.86894000;5.39848000;2023-04-01T08:03:57;99598.81;;;10.33
7830;BMP180;3960;51.86894000;5.39848000;2023-04-01T08:06:45;99593.28;;;10.24
7830;BMP180;3960;51.86894000;5.39848000;2023-04-01T08:10:23;99612.56;;;10.39
7830;BMP180;3960;51.86894000;5.39848000;2023-04-01T08:20:34;99619.50;;;10.40
7830;BMP180;3960;51.86894000;5.39848000;2023-04-01T08:23:15;99628.50;;;10.49
7830;BMP180;3960;51.86894000;5.39848000;2023-04-01T08:29:21;99644.00;;;10.61
7830;BMP180;3960;51.86894000;5.39848000;2023-04-01T08:34:36;99655.38;;;10.69
7830;BMP180;3960;51.86894000;5.39848000;2023-04-01T08:37:06;99658.28;;;10.74
7830;BMP180;3960;51.86894000;5.39848000;2023-04-01T08:39:39;99651.06;;;10.71
7830;BMP180;3960;51.86894000;5.39848000;2023-04-01T08:42:28;99669.47;;;10.76
7830;BMP180;3960;51.86894000;5.39848000;2023-04-01T08:50:57;99676.19;;;10.84
7830;BMP180;3960;51.86894000;5.39848000;2023-04-01T08:54:52;99676.59;;;10.83
7830;BMP180;3960;51.86894000;5.39848000;2023-04-01T08:56:53;99682.44;;;10.81
7830;BMP180;3960;51.86894000;5.39848000;2023-04-01T08:59:55;99683.31;;;10.78
7830;BMP180;3960;51.86894000;5.39848000;2023-04-01T09:02:48;99686.03;;;10.78
7830;BMP180;3960;51.86894000;5.39848000;2023-04-01T09:11:08;99703.47;;;10.89
7830;BMP180;3960;51.86894000;5.39848000;2023-04-01T09:13:46;99695.88;;;10.85
7830;BMP180;3960;51.86894000;5.39848000;2023-04-01T09:16:28;99708.56;;;11.00
7830;BMP180;3960;51.86894000;5.39848000;2023-04-01T09:27:33;99724.50;;;10.98
7830;BMP180;3960;51.86894000;5.39848000;2023-04-01T09:35:36;99741.84;;;11.00
7830;BMP180;3960;51.86894000;5.39848000;2023-04-01T09:46:15;99748.97;;;11.07
7830;BMP180;3960;51.86894000;5.39848000;2023-04-01T09:56:58;99758.31;;;11.18
7830;BMP180;3960;51.86894000;5.39848000;2023-04-01T10:02:31;99771.13;;;11.18
7830;BMP180;3960;51.86894000;5.39848000;2023-04-01T10:24:40;99791.59;;;11.44
7830;BMP180;3960;51.86894000;5.39848000;2023-04-01T10:43:15;99797.69;;;11.72
7830;BMP180;3960;51.86894000;5.39848000;2023-04-01T10:51:38;99802.03;;;11.70
7830;BMP180;3960;51.86894000;5.39848000;2023-04-01T11:16:53;99808.19;;;11.70
7830;BMP180;3960;51.86894000;5.39848000;2023-04-01T11:25:08;99824.34;;;11.74
7830;BMP180;3960;51.86894000;5.39848000;2023-04-01T11:30:18;99831.00;;;11.73
7830;BMP180;3960;51.86894000;5.39848000;2023-04-01T11:32:57;99843.91;;;11.69
7830;BMP180;3960;51.86894000;5.39848000;2023-04-01T11:46:37;99863.97;;;11.59
7830;BMP180;3960;51.86894000;5.39848000;2023-04-01T11:54:55;99877.97;;;11.70
7830;BMP180;3960;51.86894000;5.39848000;2023-04-01T12:05:41;99875.78;;;11.77
7830;BMP180;3960;51.86894000;5.39848000;2023-04-01T12:08:24;99888.25;;;12.12
7830;BMP180;3960;51.86894000;5.39848000;2023-04-01T12:18:42;99893.75;;;12.67
7830;BMP180;3960;51.86894000;5.39848000;2023-04-01T12:21:15;99908.75;;;12.59
7830;BMP180;3960;51.86894000;5.39848000;2023-04-01T12:24:00;99899.88;;;12.46
7830;BMP180;3960;51.86894000;5.39848000;2023-04-01T12:30:05;99911.31;;;12.41
7830;BMP180;3960;51.86894000;5.39848000;2023-04-01T12:32:36;99911.81;;;12.49
7830;BMP180;3960;51.86894000;5.39848000;2023-04-01T12:35:18;99912.94;;;12.51
7830;BMP180;3960;51.86894000;5.39848000;2023-04-01T12:45:38;99927.38;;;12.36
7830;BMP180;3960;51.86894000;5.39848000;2023-04-01T12:48:39;99920.25;;;12.30
7830;BMP180;3960;51.86894000;5.39848000;2023-04-01T13:08:05;99943.91;;;12.41
7830;BMP180;3960;51.86894000;5.39848000;2023-04-01T13:13:11;99959.50;;;12.50
7830;BMP180;3960;51.86894000;5.39848000;2023-04-01T13:15:52;99961.38;;;12.53
7830;BMP180;3960;51.86894000;5.39848000;2023-04-01T13:21:11;99966.81;;;12.53
7830;BMP180;3960;51.86894000;5.39848000;2023-04-01T13:26:58;99974.84;;;12.44
7830;BMP180;3960;51.86894000;5.39848000;2023-04-01T13:29:32;99977.66;;;12.40
7830;BMP180;3960;51.86894000;5.39848000;2023-04-01T13:35:02;99979.75;;;12.24
7830;BMP180;3960;51.86894000;5.39848000;2023-04-01T13:37:58;99987.78;;;12.15
7830;BMP180;3960;51.86894000;5.39848000;2023-04-01T13:40:41;99984.09;;;12.09
7830;BMP180;3960;51.86894000;5.39848000;2023-04-01T13:43:25;99990.06;;;12.17
7830;BMP180;3960;51.86894000;5.39848000;2023-04-01T13:46:09;99998.00;;;12.24
7830;BMP180;3960;51.86894000;5.39848000;2023-04-01T13:51:24;100003.28;;;12.39
7830;BMP180;3960;51.86894000;5.39848000;2023-04-01T14:07:59;100020.19;;;13.27
7830;BMP180;3960;51.86894000;5.39848000;2023-04-01T14:27:41;100039.91;;;13.52
7830;BMP180;3960;51.86894000;5.39848000;2023-04-01T14:47:54;100035.16;;;13.10
7830;BMP180;3960;51.86894000;5.39848000;2023-04-01T14:50:24;100037.22;;;13.06
7830;BMP180;3960;51.86894000;5.39848000;2023-04-01T15:00:48;100071.69;;;13.09
7830;BMP180;3960;51.86894000;5.39848000;2023-04-01T15:09:37;100075.53;;;12.74
7830;BMP180;3960;51.86894000;5.39848000;2023-04-01T15:12:40;100084.44;;;12.62
7830;BMP180;3960;51.86894000;5.39848000;2023-04-01T15:15:24;100080.53;;;12.51
7830;BMP180;3960;51.86894000;5.39848000;2023-04-01T15:18:08;100094.09;;;12.38
7830;BMP180;3960;51.86894000;5.39848000;2023-04-01T15:23:49;100102.88;;;12.18
7830;BMP180;3960;51.86894000;5.39848000;2023-04-01T15:26:27;100103.72;;;12.15
7830;BMP180;3960;51.86894000;5.39848000;2023-04-01T15:38:05;100114.91;;;11.76
7830;BMP180;3960;51.86894000;5.39848000;2023-04-01T15:40:48;100126.31;;;11.83
7830;BMP180;3960;51.86894000;5.39848000;2023-04-01T15:46:24;100148.63;;;11.75
7830;BMP180;3960;51.86894000;5.39848000;2023-04-01T15:49:08;100153.75;;;11.73
7830;BMP180;3960;51.86894000;5.39848000;2023-04-01T15:51:53;100141.28;;;11.60
7830;BMP180;3960;51.86894000;5.39848000;2023-04-01T16:02:31;100171.28;;;11.68
7830;BMP180;3960;51.86894000;5.39848000;2023-04-01T16:13:16;100190.72;;;11.51
7830;BMP180;3960;51.86894000;5.39848000;2023-04-01T16:16:14;100203.31;;;11.58
7830;BMP180;3960;51.86894000;5.39848000;2023-04-01T16:21:54;100215.19;;;11.64
7830;BMP180;3960;51.86894000;5.39848000;2023-04-01T16:33:10;100231.22;;;11.58
7830;BMP180;3960;51.86894000;5.39848000;2023-04-01T16:36:22;100237.06;;;11.57
7830;BMP180;3960;51.86894000;5.39848000;2023-04-01T16:39:05;100247.22;;;11.53
7830;BMP180;3960;51.86894000;5.39848000;2023-04-01T16:41:35;100258.50;;;11.51
7830;BMP180;3960;51.86894000;5.39848000;2023-04-01T16:44:23;100248.06;;;11.50
7830;BMP180;3960;51.86894000;5.39848000;2023-04-01T16:46:53;100262.44;;;11.47
7830;BMP180;3960;51.86894000;5.39848000;2023-04-01T16:49:36;100270.94;;;11.49
7830;BMP180;3960;51.86894000;5.39848000;2023-04-01T16:54:31;100284.91;;;11.47
7830;BMP180;3960;51.86894000;5.39848000;2023-04-01T16:59:47;100293.53;;;11.42
7830;BMP180;3960;51.86894000;5.39848000;2023-04-01T17:02:23;100297.59;;;11.34
7830;BMP180;3960;51.86894000;5.39848000;2023-04-01T17:05:00;100297.25;;;11.32
7830;BMP180;3960;51.86894000;5.39848000;2023-04-01T17:07:46;100305.81;;;11.31
7830;BMP180;3960;51.86894000;5.39848000;2023-04-01T17:10:28;100314.50;;;11.22
7830;BMP180;3960;51.86894000;5.39848000;2023-04-01T17:13:29;100320.00;;;11.19
7830;BMP180;3960;51.86894000;5.39848000;2023-04-01T17:19:05;100329.56;;;11.07
7830;BMP180;3960;51.86894000;5.39848000;2023-04-01T17:43:19;100393.16;;;10.80
7830;BMP180;3960;51.86894000;5.39848000;2023-04-01T17:45:56;100397.91;;;10.76
7830;BMP180;3960;51.86894000;5.39848000;2023-04-01T17:48:42;100407.25;;;10.72
7830;BMP180;3960;51.86894000;5.39848000;2023-04-01T17:51:25;100391.19;;;10.61
7830;BMP180;3960;51.86894000;5.39848000;2023-04-01T17:56:39;100424.19;;;10.56
7830;BMP180;3960;51.86894000;5.39848000;2023-04-01T17:59:38;100433.91;;;10.54
7830;BMP180;3960;51.86894000;5.39848000;2023-04-01T18:02:21;100437.06;;;10.49
7830;BMP180;3960;51.86894000;5.39848000;2023-04-01T18:05:00;100439.38;;;10.50
7830;BMP180;3960;51.86894000;5.39848000;2023-04-01T18:10:29;100457.69;;;10.43
7830;BMP180;3960;51.86894000;5.39848000;2023-04-01T18:16:26;100472.50;;;10.35
7830;BMP180;3960;51.86894000;5.39848000;2023-04-01T18:19:06;100478.38;;;10.30
7830;BMP180;3960;51.86894000;5.39848000;2023-04-01T18:21:44;100483.84;;;10.26
7830;BMP180;3960;51.86894000;5.39848000;2023-04-01T18:24:28;100480.50;;;10.16
7830;BMP180;3960;51.86894000;5.39848000;2023-04-01T18:29:50;100508.69;;;10.18
7830;BMP180;3960;51.86894000;5.39848000;2023-04-01T18:32:26;100494.16;;;10.09
7830;BMP180;3960;51.86894000;5.39848000;2023-04-01T18:37:31;100529.28;;;10.12
7830;BMP180;3960;51.86894000;5.39848000;2023-04-01T18:40:22;100534.38;;;10.07
7830;BMP180;3960;51.86894000;5.39848000;2023-04-01T18:43:12;100543.72;;;10.02
7830;BMP180;3960;51.86894000;5.39848000;2023-04-01T18:45:49;100550.72;;;10.00
7830;BMP180;3960;51.86894000;5.39848000;2023-04-01T18:50:57;100562.38;;;9.90
7830;BMP180;3960;51.86894000;5.39848000;2023-04-01T18:53:34;100550.63;;;9.73
7830;BMP180;3960;51.86894000;5.39848000;2023-04-01T18:56:05;100575.16;;;9.89
7830;BMP180;3960;51.86894000;5.39848000;2023-04-01T19:04:17;100603.03;;;9.83
7830;BMP180;3960;51.86894000;5.39848000;2023-04-01T19:06:48;100586.63;;;9.67
7830;BMP180;3960;51.86894000;5.39848000;2023-04-01T19:09:25;100600.81;;;9.74
7830;BMP180;3960;51.86894000;5.39848000;2023-04-01T19:25:48;100650.03;;;9.62
7830;BMP180;3960;51.86894000;5.39848000;2023-04-01T19:33:37;100654.34;;;9.53
7830;BMP180;3960;51.86894000;5.39848000;2023-04-01T19:36:14;100669.78;;;9.52
7830;BMP180;3960;51.86894000;5.39848000;2023-04-01T19:38:53;100670.59;;;9.53
7830;BMP180;3960;51.86894000;5.39848000;2023-04-01T19:41:38;100675.16;;;9.56
7830;BMP180;3960;51.86894000;5.39848000;2023-04-01T19:44:17;100675.22;;;9.49
7830;BMP180;3960;51.86894000;5.39848000;2023-04-01T19:46:46;100689.13;;;9.51
7830;BMP180;3960;51.86894000;5.39848000;2023-04-01T19:57:38;100709.66;;;9.45
7830;BMP180;3960;51.86894000;5.39848000;2023-04-01T20:03:03;100709.75;;;9.31
7830;BMP180;3960;51.86894000;5.39848000;2023-04-01T20:06:13;100726.72;;;9.35
7830;BMP180;3960;51.86894000;5.39848000;2023-04-01T20:11:11;100727.22;;;9.20
7830;BMP180;3960;51.86894000;5.39848000;2023-04-01T20:13:58;100747.56;;;9.35
7830;BMP180;3960;51.86894000;5.39848000;2023-04-01T20:19:07;100756.50;;;9.28
7830;BMP180;3960;51.86894000;5.39848000;2023-04-01T20:21:41;100764.59;;;9.32
7830;BMP180;3960;51.86894000;5.39848000;2023-04-01T20:26:41;100773.06;;;9.30
7830;BMP180;3960;51.86894000;5.39848000;2023-04-01T20:29:27;100786.59;;;9.30
7830;BMP180;3960;51.86894000;5.39848000;2023-04-01T20:33:00;100782.44;;;9.19
7830;BMP180;3960;51.86894000;5.39848000;2023-04-01T20:40:26;100787.59;;;8.92
7830;BMP180;3960;51.86894000;5.39848000;2023-04-01T20:43:14;100806.09;;;8.90
7830;BMP180;3960;51.86894000;5.39848000;2023-04-01T20:51:39;100822.00;;;8.78
7830;BMP180;3960;51.86894000;5.39848000;2023-04-01T20:57:09;100848.59;;;8.79
7830;BMP180;3960;51.86894000;5.39848000;2023-04-01T21:05:30;100854.03;;;8.72
7830;BMP180;3960;51.86894000;5.39848000;2023-04-01T21:08:24;100844.41;;;8.61
7830;BMP180;3960;51.86894000;5.39848000;2023-04-01T21:11:07;100871.38;;;8.68
7830;BMP180;3960;51.86894000;5.39848000;2023-04-01T21:13:36;100876.03;;;8.68
7830;BMP180;3960;51.86894000;5.39848000;2023-04-01T21:16:26;100869.50;;;8.58
7830;BMP180;3960;51.86894000;5.39848000;2023-04-01T21:19:34;100875.28;;;8.57
7830;BMP180;3960;51.86894000;5.39848000;2023-04-01T21:22:21;100890.31;;;8.58